Londerzeel, Belgium
Current Conditions -  °F | °C
As of 3:20 PM on Sunday 21 Dec 2014 (Local Time) from EBBR Reporting Station
Drizzle Drizzle  
Wind Chill: 39°   Ceiling: 1100
Heat Index: 46°   Visibility: 3mi
Dew Point: 43°   Wind: 20mph
Humidity: 87%   Direction: 240°WSW
Pressure: 30.33"   Gusts: NA
Location:  51°N, 4.3°E
Report Text: EBBR 211420Z 24017KT 5000 -DZ SCT007 BKN011 08/06 Q1027 TEMPO 4500 DZ BKN008
Loading
Personal Weather Stations






























Interactive Weather Map New forecast layout! Learn more

10-Day Weather Forecast

Advertisements
Track Severe Weather on mobile